Pedernales — WDC2721 — position and weather

sailwx.info

Track history (hours):
 
Tides and Currents Weather Stations Pressure Air Temp Water Temp Dewpoint Dewpoint Depression Visibility Wind Speed Wind Dir Waves Ship Positions

Pedernales

Owner: Kirby Inland Marine, LP, Houston, TX. More information available from US FCC via Universal Licensing System and Coast Guard Vessel Documentation Center.

Last reported at 2017-Nov-19 03:21 UTC. Time now 2017-Nov-20 17:15 UTC.
Position N 30°04' W 093°32'.

Length 205 m; draft 2.9 m.

Type: . MMSI: 366996790.

Date/timePositionNaut miles runAvg speedWind from/ knotsBaromVisibWave heightAir tempDewpointWater temp
2017-Nov-19 03:21N 30°04' W 093°32'2 4.5
2017-Nov-19 03:00N 30°04' W 093°30'2 4.5
2017-Nov-19 02:30N 30°04' W 093°27'2 4.5
2017-Nov-19 02:00N 30°04' W 093°25'2 4.6
2017-Nov-19 01:30N 30°04' W 093°22'1 1.2
2017-Nov-19 01:00N 30°04' W 093°21'0 0.5
2017-Nov-19 00:30N 30°04' W 093°21'1 2.1
2017-Nov-19 00:00N 30°05' W 093°20'2 3.7
2017-Nov-18 23:30N 30°06' W 093°20'3 5.1
2017-Nov-18 23:00N 30°09' W 093°20'2 3.0
2017-Nov-18 22:30N 30°10' W 093°19'0 0.3
2017-Nov-18 22:00N 30°10' W 093°19'0 0.3
2017-Nov-18 21:30N 30°10' W 093°19'0 0.0
2017-Nov-18 21:00N 30°10' W 093°19'0 0.0
2017-Nov-18 20:30N 30°10' W 093°19'0 0.0
2017-Nov-18 20:00N 30°10' W 093°19'0 0.0
2017-Nov-18 19:30N 30°10' W 093°19'0 0.0
2017-Nov-18 19:00N 30°10' W 093°19'0 0.0
2017-Nov-18 18:30N 30°10' W 093°19'0 0.0
2017-Nov-18 18:00N 30°10' W 093°19'0 0.0
2017-Nov-18 17:30N 30°10' W 093°19'0 0.0
2017-Nov-18 17:00N 30°10' W 093°19'0 0.0
2017-Nov-18 16:30N 30°10' W 093°19'0 0.0
2017-Nov-18 16:00N 30°10' W 093°19'0 0.0
2017-Nov-18 15:30N 30°10' W 093°19'0 0.0
2017-Nov-18 15:00N 30°10' W 093°19'0 0.0
2017-Nov-18 14:30N 30°10' W 093°19'0 0.0
2017-Nov-18 14:00N 30°10' W 093°19'0 0.0
2017-Nov-18 13:30N 30°10' W 093°19'0 0.0
2017-Nov-18 13:00N 30°10' W 093°19'0 0.0
2017-Nov-18 12:30N 30°10' W 093°19'0 0.0
2017-Nov-18 12:00N 30°10' W 093°19'0 0.0
2017-Nov-18 11:30N 30°10' W 093°19'0 0.0
2017-Nov-18 11:00N 30°10' W 093°19'0 0.0
2017-Nov-18 10:30N 30°10' W 093°19'0 0.0
2017-Nov-18 09:57N 30°10' W 093°19'0 0.0
2017-Nov-18 09:23N 30°10' W 093°19'0 0.0
2017-Nov-18 08:56N 30°10' W 093°19'0 0.0
2017-Nov-18 08:29N 30°10' W 093°19'0 0.0
2017-Nov-18 07:59N 30°10' W 093°19'0 0.0
2017-Nov-18 07:29N 30°10' W 093°19'0 0.0
2017-Nov-18 06:59N 30°10' W 093°19'0 0.0
2017-Nov-18 06:29N 30°10' W 093°19'0 0.0
2017-Nov-18 05:59N 30°10' W 093°19'0 0.0
2017-Nov-18 05:29N 30°10' W 093°19'0 0.0
2017-Nov-18 04:59N 30°10' W 093°19'0 0.0
2017-Nov-18 04:29N 30°10' W 093°19'0 0.0
2017-Nov-18 03:59N 30°10' W 093°19'0 0.0
2017-Nov-18 03:29N 30°10' W 093°19'0 0.0
2017-Nov-18 02:59N 30°10' W 093°19'0 0.0
2017-Nov-18 02:29N 30°10' W 093°19'0 0.0
2017-Nov-18 01:59N 30°10' W 093°19'0 0.0
2017-Nov-18 01:29N 30°10' W 093°19'0 0.0
2017-Nov-18 00:59N 30°10' W 093°19'0 0.0
2017-Nov-18 00:29N 30°10' W 093°19'0 0.0
2017-Nov-17 23:59N 30°10' W 093°19'0 0.0
2017-Nov-17 23:30N 30°10' W 093°19'0 0.0
2017-Nov-17 23:00N 30°10' W 093°19'0 0.0
2017-Nov-17 22:30N 30°10' W 093°19'0 0.0
2017-Nov-17 22:00N 30°10' W 093°19'1 1.6
2017-Nov-17 21:30N 30°10' W 093°19'3 5.8
2017-Nov-17 21:00N 30°07' W 093°20'2 5.0
2017-Nov-17 20:30N 30°04' W 093°20'1 2.9
2017-Nov-17 20:00N 30°04' W 093°22'0 0.0
2017-Nov-17 19:30N 30°04' W 093°22'0 0.0
2017-Nov-17 19:00N 30°04' W 093°22'0 0.0
2017-Nov-17 18:30N 30°04' W 093°22'0 0.0
2017-Nov-17 18:00N 30°04' W 093°22'0 0.0
2017-Nov-17 17:29N 30°04' W 093°22'0 0.0
2017-Nov-17 16:59N 30°04' W 093°22'0 0.0
2017-Nov-17 16:29N 30°04' W 093°22'0 0.0
2017-Nov-17 15:59N 30°04' W 093°22'0 0.0
2017-Nov-17 15:29N 30°04' W 093°22'0 0.0
2017-Nov-17 14:59N 30°04' W 093°22'0 0.0
2017-Nov-17 14:28N 30°04' W 093°22'0 0.0
2017-Nov-17 13:58N 30°04' W 093°22'0 0.0
2017-Nov-17 13:25N 30°04' W 093°22'0 0.0
2017-Nov-17 12:58N 30°04' W 093°22'0 0.0
2017-Nov-17 12:28N 30°04' W 093°22'0 0.0
2017-Nov-17 11:58N 30°04' W 093°22'0 0.0
2017-Nov-17 11:28N 30°04' W 093°22'0 0.0
2017-Nov-17 10:58N 30°04' W 093°22'0 0.0
2017-Nov-17 10:25N 30°04' W 093°22'0 0.0
2017-Nov-17 09:58N 30°04' W 093°22'0 0.0
2017-Nov-17 09:28N 30°04' W 093°22'0 0.0
2017-Nov-17 08:58N 30°04' W 093°22'0 0.0
2017-Nov-17 08:28N 30°04' W 093°22'0 0.0
2017-Nov-17 07:58N 30°04' W 093°22'0 0.0
2017-Nov-17 07:28N 30°04' W 093°22'0 0.0
2017-Nov-17 06:58N 30°04' W 093°22'0 0.0
2017-Nov-17 06:28N 30°04' W 093°22'0 0.0
2017-Nov-17 05:58N 30°04' W 093°22'0 0.0
2017-Nov-17 05:28N 30°04' W 093°22'0 0.0
2017-Nov-17 04:58N 30°04' W 093°22'0 0.0
2017-Nov-17 04:28N 30°04' W 093°22'0 0.3
2017-Nov-17 03:59N 30°04' W 093°22'0 0.0
2017-Nov-17 03:29N 30°04' W 093°22'0 0.0
2017-Nov-17 02:59N 30°04' W 093°22'0 0.3
2017-Nov-17 02:28N 30°04' W 093°22'0 0.0
2017-Nov-17 01:58N 30°04' W 093°22'0 0.0
2017-Nov-17 01:28N 30°04' W 093°22'0 0.0
2017-Nov-17 00:58N 30°04' W 093°22'0 0.0
2017-Nov-17 00:28N 30°04' W 093°22'0 0.0
2017-Nov-16 23:58N 30°04' W 093°22'0 0.0
2017-Nov-16 23:30N 30°04' W 093°22'1 1.0
2017-Nov-16 23:00N 30°04' W 093°21'1 1.1
2017-Nov-16 22:31N 30°04' W 093°22'3 5.1
2017-Nov-16 22:00N 30°04' W 093°25'3 5.5
2017-Nov-16 21:25N 30°04' W 093°29'2 5.2
2017-Nov-16 21:00N 30°04' W 093°31'21 1.9
2017-Nov-16 09:59N 29°60' W 093°55'  
Track history (hours):
 
Tides and Currents Weather Stations Pressure Air Temp Water Temp Dewpoint Dewpoint Depression Visibility Wind Speed Wind Dir Waves Ship Positions

Pedernales

Owner: Kirby Inland Marine, LP, Houston, TX. More information available from US FCC via Universal Licensing System and Coast Guard Vessel Documentation Center.

Last reported at 2017-Nov-19 03:21 UTC. Time now 2017-Nov-20 17:15 UTC.
Position N 30°04' W 093°32'.

Length 205 m; draft 2.9 m.

Type: . MMSI: 366996790.

Date/timePositionNaut miles runAvg speedWind from/ knotsBaromVisibWave heightAir tempDewpointWater temp
2017-Nov-19 03:21N 30°04' W 093°32'2 4.5
2017-Nov-19 03:00N 30°04' W 093°30'2 4.5
2017-Nov-19 02:30N 30°04' W 093°27'2 4.5
2017-Nov-19 02:00N 30°04' W 093°25'2 4.6
2017-Nov-19 01:30N 30°04' W 093°22'1 1.2
2017-Nov-19 01:00N 30°04' W 093°21'0 0.5
2017-Nov-19 00:30N 30°04' W 093°21'1 2.1
2017-Nov-19 00:00N 30°05' W 093°20'2 3.7
2017-Nov-18 23:30N 30°06' W 093°20'3 5.1
2017-Nov-18 23:00N 30°09' W 093°20'2 3.0
2017-Nov-18 22:30N 30°10' W 093°19'0 0.3
2017-Nov-18 22:00N 30°10' W 093°19'0 0.3
2017-Nov-18 21:30N 30°10' W 093°19'0 0.0
2017-Nov-18 21:00N 30°10' W 093°19'0 0.0
2017-Nov-18 20:30N 30°10' W 093°19'0 0.0
2017-Nov-18 20:00N 30°10' W 093°19'0 0.0
2017-Nov-18 19:30N 30°10' W 093°19'0 0.0
2017-Nov-18 19:00N 30°10' W 093°19'0 0.0
2017-Nov-18 18:30N 30°10' W 093°19'0 0.0
2017-Nov-18 18:00N 30°10' W 093°19'0 0.0
2017-Nov-18 17:30N 30°10' W 093°19'0 0.0
2017-Nov-18 17:00N 30°10' W 093°19'0 0.0
2017-Nov-18 16:30N 30°10' W 093°19'0 0.0
2017-Nov-18 16:00N 30°10' W 093°19'0 0.0
2017-Nov-18 15:30N 30°10' W 093°19'0 0.0
2017-Nov-18 15:00N 30°10' W 093°19'0 0.0
2017-Nov-18 14:30N 30°10' W 093°19'0 0.0
2017-Nov-18 14:00N 30°10' W 093°19'0 0.0
2017-Nov-18 13:30N 30°10' W 093°19'0 0.0
2017-Nov-18 13:00N 30°10' W 093°19'0 0.0
2017-Nov-18 12:30N 30°10' W 093°19'0 0.0
2017-Nov-18 12:00N 30°10' W 093°19'0 0.0
2017-Nov-18 11:30N 30°10' W 093°19'0 0.0
2017-Nov-18 11:00N 30°10' W 093°19'0 0.0
2017-Nov-18 10:30N 30°10' W 093°19'0 0.0
2017-Nov-18 09:57N 30°10' W 093°19'0 0.0
2017-Nov-18 09:23N 30°10' W 093°19'0 0.0
2017-Nov-18 08:56N 30°10' W 093°19'0 0.0
2017-Nov-18 08:29N 30°10' W 093°19'0 0.0
2017-Nov-18 07:59N 30°10' W 093°19'0 0.0
2017-Nov-18 07:29N 30°10' W 093°19'0 0.0
2017-Nov-18 06:59N 30°10' W 093°19'0 0.0
2017-Nov-18 06:29N 30°10' W 093°19'0 0.0
2017-Nov-18 05:59N 30°10' W 093°19'0 0.0
2017-Nov-18 05:29N 30°10' W 093°19'0 0.0
2017-Nov-18 04:59N 30°10' W 093°19'0 0.0
2017-Nov-18 04:29N 30°10' W 093°19'0 0.0
2017-Nov-18 03:59N 30°10' W 093°19'0 0.0
2017-Nov-18 03:29N 30°10' W 093°19'0 0.0
2017-Nov-18 02:59N 30°10' W 093°19'0 0.0
2017-Nov-18 02:29N 30°10' W 093°19'0 0.0
2017-Nov-18 01:59N 30°10' W 093°19'0 0.0
2017-Nov-18 01:29N 30°10' W 093°19'0 0.0
2017-Nov-18 00:59N 30°10' W 093°19'0 0.0
2017-Nov-18 00:29N 30°10' W 093°19'0 0.0
2017-Nov-17 23:59N 30°10' W 093°19'0 0.0
2017-Nov-17 23:30N 30°10' W 093°19'0 0.0
2017-Nov-17 23:00N 30°10' W 093°19'0 0.0
2017-Nov-17 22:30N 30°10' W 093°19'0 0.0
2017-Nov-17 22:00N 30°10' W 093°19'1 1.6
2017-Nov-17 21:30N 30°10' W 093°19'3 5.8
2017-Nov-17 21:00N 30°07' W 093°20'2 5.0
2017-Nov-17 20:30N 30°04' W 093°20'1 2.9
2017-Nov-17 20:00N 30°04' W 093°22'0 0.0
2017-Nov-17 19:30N 30°04' W 093°22'0 0.0
2017-Nov-17 19:00N 30°04' W 093°22'0 0.0
2017-Nov-17 18:30N 30°04' W 093°22'0 0.0
2017-Nov-17 18:00N 30°04' W 093°22'0 0.0
2017-Nov-17 17:29N 30°04' W 093°22'0 0.0
2017-Nov-17 16:59N 30°04' W 093°22'0 0.0
2017-Nov-17 16:29N 30°04' W 093°22'0 0.0
2017-Nov-17 15:59N 30°04' W 093°22'0 0.0
2017-Nov-17 15:29N 30°04' W 093°22'0 0.0
2017-Nov-17 14:59N 30°04' W 093°22'0 0.0
2017-Nov-17 14:28N 30°04' W 093°22'0 0.0
2017-Nov-17 13:58N 30°04' W 093°22'0 0.0
2017-Nov-17 13:25N 30°04' W 093°22'0 0.0
2017-Nov-17 12:58N 30°04' W 093°22'0 0.0
2017-Nov-17 12:28N 30°04' W 093°22'0 0.0
2017-Nov-17 11:58N 30°04' W 093°22'0 0.0
2017-Nov-17 11:28N 30°04' W 093°22'0 0.0
2017-Nov-17 10:58N 30°04' W 093°22'0 0.0
2017-Nov-17 10:25N 30°04' W 093°22'0 0.0
2017-Nov-17 09:58N 30°04' W 093°22'0 0.0
2017-Nov-17 09:28N 30°04' W 093°22'0 0.0
2017-Nov-17 08:58N 30°04' W 093°22'0 0.0
2017-Nov-17 08:28N 30°04' W 093°22'0 0.0
2017-Nov-17 07:58N 30°04' W 093°22'0 0.0
2017-Nov-17 07:28N 30°04' W 093°22'0 0.0
2017-Nov-17 06:58N 30°04' W 093°22'0 0.0
2017-Nov-17 06:28N 30°04' W 093°22'0 0.0
2017-Nov-17 05:58N 30°04' W 093°22'0 0.0
2017-Nov-17 05:28N 30°04' W 093°22'0 0.0
2017-Nov-17 04:58N 30°04' W 093°22'0 0.0
2017-Nov-17 04:28N 30°04' W 093°22'0 0.3
2017-Nov-17 03:59N 30°04' W 093°22'0 0.0
2017-Nov-17 03:29N 30°04' W 093°22'0 0.0
2017-Nov-17 02:59N 30°04' W 093°22'0 0.3
2017-Nov-17 02:28N 30°04' W 093°22'0 0.0
2017-Nov-17 01:58N 30°04' W 093°22'0 0.0
2017-Nov-17 01:28N 30°04' W 093°22'0 0.0
2017-Nov-17 00:58N 30°04' W 093°22'0 0.0
2017-Nov-17 00:28N 30°04' W 093°22'0 0.0
2017-Nov-16 23:58N 30°04' W 093°22'0 0.0
2017-Nov-16 23:30N 30°04' W 093°22'1 1.0
2017-Nov-16 23:00N 30°04' W 093°21'1 1.1
2017-Nov-16 22:31N 30°04' W 093°22'3 5.1
2017-Nov-16 22:00N 30°04' W 093°25'3 5.5
2017-Nov-16 21:25N 30°04' W 093°29'2 5.2
2017-Nov-16 21:00N 30°04' W 093°31'21 1.9
2017-Nov-16 09:59N 29°60' W 093°55'  

Dump ship's entire track history